Time;durP1;ratioP1;P1;durP2;ratioP2;P2;SDS_P1;SDS_P2;PMS_P1;PMS_P2;Temp;Humidity;BMP_temperature;BMP_pressure;BME280_temperature;BME280_humidity;BME280_pressure;Samples;Min_cycle;Max_cycle;Signal;HPM_P1;HPM_P2
2022/12/07 00:00:26;;;;;;;;;;;3.70;99.90;;;;;;12344923;28;19926;-38
2022/12/07 00:06:27;;;;;;;;;;;3.80;99.90;;;;;;12338898;28;19926;-38
2022/12/07 00:12:29;;;;;;;;;;;3.90;99.90;;;;;;12350043;28;20073;-38
2022/12/07 00:18:31;;;;;;;;;;;4.00;99.90;;;;;;12350974;28;20278;-38
2022/12/07 00:24:32;;;;;;;;;;;3.90;99.90;;;;;;12348412;28;19930;-38
2022/12/07 00:30:34;;;;;;;;;;;4.00;99.90;;;;;;12344924;28;20399;-38
2022/12/07 00:36:36;;;;;;;;;;;4.10;99.90;;;;;;12347543;28;19934;-39
2022/12/07 00:42:38;;;;;;;;;;;4.10;99.90;;;;;;12341730;28;19933;-38
2022/12/07 00:48:39;;;;;;;;;;;4.10;99.90;;;;;;12347542;28;19925;-38
2022/12/07 00:54:41;;;;;;;;;;;4.10;99.90;;;;;;12347238;28;20034;-39
2022/12/07 01:00:43;;;;;;;;;;;4.10;99.90;;;;;;12345128;28;19946;-38
2022/12/07 01:06:45;;;;;;;;;;;4.20;99.90;;;;;;12335392;28;19926;-39
2022/12/07 01:12:46;;;;;;;;;;;4.20;99.90;;;;;;12348176;28;19961;-39
2022/12/07 01:18:51;;;;;;;;;;;4.20;99.90;;;;;;12338830;28;19926;-38
2022/12/07 01:24:52;;;;;;;;;;;4.30;99.90;;;;;;12339496;28;20390;-39
2022/12/07 01:31:02;;;;;;;;;;;4.30;99.90;;;;;;12337536;28;19926;-39
2022/12/07 01:37:04;;;;;;;;;;;4.30;99.90;;;;;;12341740;28;20048;-38
2022/12/07 01:43:32;;;;;;;;;;;4.30;99.90;;;;;;12334412;28;19948;-39
2022/12/07 01:49:33;;;;;;;;;;;4.30;99.90;;;;;;12346548;28;20302;-39
2022/12/07 01:55:37;;;;;;;;;;;4.30;99.90;;;;;;12340626;28;19926;-39
2022/12/07 02:01:39;;;;;;;;;;;4.20;99.90;;;;;;12343793;28;19978;-38
2022/12/07 02:07:41;;;;;;;;;;;4.10;99.90;;;;;;12342261;28;20386;-39
2022/12/07 02:13:44;;;;;;;;;;;4.00;99.90;;;;;;12340253;28;19926;-38
2022/12/07 02:19:48;;;;;;;;;;;3.90;99.90;;;;;;12342972;28;19933;-38
2022/12/07 02:26:09;;;;;;;;;;;3.90;99.90;;;;;;12337246;28;20297;-38
2022/12/07 02:32:16;;;;;;;;;;;4.00;99.90;;;;;;12343727;28;19930;-39
2022/12/07 02:38:47;;;;;;;;;;;4.10;99.90;;;;;;12342974;28;19933;-38
2022/12/07 02:44:49;;;;;;;;;;;4.00;99.90;;;;;;12321229;28;19937;-39
2022/12/07 02:50:52;;;;;;;;;;;4.10;99.90;;;;;;12341369;28;19926;-38
2022/12/07 02:57:00;;;;;;;;;;;4.10;99.90;;;;;;12343355;28;19930;-38
2022/12/07 03:03:21;;;;;;;;;;;4.10;99.90;;;;;;12348885;28;19930;-38
2022/12/07 03:09:35;;;;;;;;;;;4.00;99.90;;;;;;12349534;28;20302;-38
2022/12/07 03:15:50;;;;;;;;;;;3.90;99.90;;;;;;12352313;28;19930;-39
2022/12/07 03:21:57;;;;;;;;;;;3.80;99.90;;;;;;12353614;28;19930;-39
2022/12/07 03:28:02;;;;;;;;;;;3.70;99.90;;;;;;12351927;28;20390;-39
2022/12/07 03:34:03;;;;;;;;;;;3.70;99.90;;;;;;12350162;28;19945;-38
2022/12/07 03:40:14;;;;;;;;;;;3.70;99.90;;;;;;12350800;28;20389;-39
2022/12/07 03:46:24;;;;;;;;;;;3.50;99.90;;;;;;12306211;28;20426;-38
2022/12/07 03:52:32;;;;;;;;;;;3.50;99.90;;;;;;12350807;28;19926;-38
2022/12/07 03:58:34;;;;;;;;;;;3.40;99.90;;;;;;12345837;28;19926;-38
2022/12/07 04:04:36;;;;;;;;;;;3.40;99.90;;;;;;12348204;28;19930;-38
2022/12/07 04:10:37;;;;;;;;;;;3.40;99.90;;;;;;12344939;28;19926;-38
2022/12/07 04:16:39;;;;;;;;;;;3.40;99.90;;;;;;12347681;28;20287;-38
2022/12/07 04:22:45;;;;;;;;;;;3.40;99.90;;;;;;12347183;28;19933;-38
2022/12/07 04:28:46;;;;;;;;;;;3.40;99.90;;;;;;12344541;28;19934;-39
2022/12/07 04:34:48;;;;;;;;;;;3.50;99.90;;;;;;12345837;28;20309;-38
2022/12/07 04:40:56;;;;;;;;;;;3.50;99.90;;;;;;12341960;28;19941;-38
2022/12/07 04:46:58;;;;;;;;;;;3.50;99.90;;;;;;12346646;28;19926;-39
2022/12/07 04:52:59;;;;;;;;;;;3.40;99.90;;;;;;12344148;28;20310;-38
2022/12/07 04:59:02;;;;;;;;;;;3.40;99.90;;;;;;12339660;28;19937;-38
2022/12/07 05:05:04;;;;;;;;;;;3.50;99.90;;;;;;12338445;28;19982;-38
2022/12/07 05:11:06;;;;;;;;;;;3.40;99.90;;;;;;12346329;28;19926;-39
2022/12/07 05:17:08;;;;;;;;;;;3.40;99.90;;;;;;12336387;28;19962;-39
2022/12/07 05:23:10;;;;;;;;;;;3.50;99.90;;;;;;12340348;28;19973;-39
2022/12/07 05:29:15;;;;;;;;;;;3.50;99.90;;;;;;12337336;28;20049;-39
2022/12/07 05:35:18;;;;;;;;;;;3.50;99.90;;;;;;12336789;28;19937;-39
2022/12/07 05:47:40;;;;;;;;;;;3.50;99.90;;;;;;12344847;28;19976;-38
2022/12/07 05:53:42;;;;;;;;;;;3.40;99.90;;;;;;12340932;28;19926;-39
2022/12/07 05:59:44;;;;;;;;;;;3.40;99.90;;;;;;12335971;28;19976;-40
2022/12/07 06:05:46;;;;;;;;;;;3.30;99.90;;;;;;12322203;28;19934;-38
2022/12/07 06:18:08;;;;;;;;;;;3.10;99.90;;;;;;12327522;28;20400;-39
2022/12/07 06:24:13;;;;;;;;;;;3.10;99.90;;;;;;12325868;28;19930;-39
2022/12/07 06:30:15;;;;;;;;;;;3.10;99.90;;;;;;12339312;28;19933;-38
2022/12/07 06:36:17;;;;;;;;;;;3.10;99.90;;;;;;12331898;28;19961;-39
2022/12/07 06:42:26;;;;;;;;;;;3.00;99.90;;;;;;12338816;28;20065;-39
2022/12/07 06:48:27;;;;;;;;;;;2.90;99.90;;;;;;12331979;28;19927;-39
2022/12/07 06:54:30;;;;;;;;;;;2.80;99.90;;;;;;12326822;28;19933;-39
2022/12/07 07:00:32;;;;;;;;;;;2.90;99.90;;;;;;12343055;28;19926;-39
2022/12/07 07:06:33;;;;;;;;;;;3.00;99.90;;;;;;12325890;28;19957;-38
2022/12/07 07:12:35;;;;;;;;;;;2.90;99.90;;;;;;12316036;28;19927;-39
2022/12/07 07:18:37;;;;;;;;;;;2.70;99.90;;;;;;12335957;28;19963;-39
2022/12/07 07:24:38;;;;;;;;;;;2.70;99.90;;;;;;12334059;28;19927;-38
2022/12/07 07:30:40;;;;;;;;;;;2.60;99.90;;;;;;12318758;28;20271;-39
2022/12/07 07:36:42;;;;;;;;;;;2.80;99.90;;;;;;12331609;28;19969;-39
2022/12/07 07:42:46;;;;;;;;;;;2.80;99.90;;;;;;12338361;28;19933;-39
2022/12/07 07:48:48;;;;;;;;;;;2.90;99.90;;;;;;12341314;28;19933;-38
2022/12/07 07:54:50;;;;;;;;;;;3.00;99.90;;;;;;12344410;28;20322;-39
2022/12/07 08:00:52;;;;;;;;;;;3.00;99.90;;;;;;12337112;28;19926;-38
2022/12/07 08:06:53;;;;;;;;;;;3.00;99.90;;;;;;12337484;28;20695;-39
2022/12/07 08:13:10;;;;;;;;;;;3.10;99.90;;;;;;12338479;28;19934;-39
2022/12/07 08:19:12;;;;;;;;;;;3.20;99.90;;;;;;12346026;28;19934;-39
2022/12/07 08:25:14;;;;;;;;;;;3.30;99.90;;;;;;12312402;28;19980;-39
2022/12/07 08:31:16;;;;;;;;;;;3.20;99.90;;;;;;12342656;28;20020;-39
2022/12/07 08:37:18;;;;;;;;;;;3.20;99.90;;;;;;12352659;28;19926;-39
2022/12/07 08:43:20;;;;;;;;;;;3.30;99.90;;;;;;12333267;28;19938;-38
2022/12/07 08:49:25;;;;;;;;;;;3.50;99.90;;;;;;12343017;28;19926;-39
2022/12/07 08:55:28;;;;;;;;;;;3.40;99.90;;;;;;12338405;28;19926;-38
2022/12/07 09:01:30;;;;;;;;;;;3.50;99.90;;;;;;12336735;28;19934;-39
2022/12/07 09:07:32;;;;;;;;;;;3.50;99.90;;;;;;12330867;28;19926;-39
2022/12/07 09:13:34;;;;;;;;;;;3.60;99.90;;;;;;12328624;28;19930;-39
2022/12/07 09:19:38;;;;;;;;;;;3.60;99.90;;;;;;12333575;28;21335;-39
2022/12/07 09:25:40;;;;;;;;;;;3.60;99.90;;;;;;12336045;28;19930;-39
2022/12/07 09:31:42;;;;;;;;;;;3.60;99.90;;;;;;12340971;28;19926;-39
2022/12/07 09:37:43;;;;;;;;;;;3.60;99.90;;;;;;12332643;28;20033;-38
2022/12/07 09:43:46;;;;;;;;;;;3.60;99.90;;;;;;12331181;28;20283;-38
2022/12/07 09:49:48;;;;;;;;;;;3.90;99.90;;;;;;12335915;28;20017;-39
2022/12/07 09:55:51;;;;;;;;;;;4.10;99.90;;;;;;12333779;28;19930;-39
2022/12/07 10:01:53;;;;;;;;;;;4.10;99.90;;;;;;12329263;28;19926;-39
2022/12/07 10:07:55;;;;;;;;;;;4.20;99.90;;;;;;12340473;28;19926;-39
2022/12/07 10:14:10;;;;;;;;;;;4.20;99.90;;;;;;12325829;28;19980;-39
2022/12/07 10:20:11;;;;;;;;;;;4.30;99.90;;;;;;12339521;28;19971;-39
2022/12/07 10:26:31;;;;;;;;;;;4.10;99.90;;;;;;12336873;28;19952;-39
2022/12/07 10:32:34;;;;;;;;;;;4.20;99.90;;;;;;12334411;28;20283;-39
2022/12/07 10:38:43;;;;;;;;;;;4.40;99.90;;;;;;12331709;28;20336;-39
2022/12/07 10:44:45;;;;;;;;;;;4.40;99.90;;;;;;12330860;28;19926;-39
2022/12/07 10:50:52;;;;;;;;;;;4.30;99.90;;;;;;12332187;28;19926;-39
2022/12/07 10:57:16;;;;;;;;;;;4.20;99.90;;;;;;12335672;28;19926;-38
2022/12/07 11:03:17;;;;;;;;;;;4.20;99.90;;;;;;12329103;28;19934;-39
2022/12/07 11:09:22;;;;;;;;;;;4.20;99.90;;;;;;12328968;28;20062;-39
2022/12/07 11:15:46;;;;;;;;;;;4.60;99.90;;;;;;12330620;28;19930;-38
2022/12/07 11:21:55;;;;;;;;;;;5.00;99.90;;;;;;12326247;28;19930;-39
2022/12/07 11:28:16;;;;;;;;;;;4.90;99.90;;;;;;12340783;28;20491;-39
2022/12/07 11:34:27;;;;;;;;;;;4.90;99.90;;;;;;12340168;28;19935;-39
2022/12/07 11:40:34;;;;;;;;;;;4.90;99.90;;;;;;12343431;28;19977;-39
2022/12/07 11:46:48;;;;;;;;;;;4.80;99.90;;;;;;12344786;28;19926;-39
2022/12/07 11:52:59;;;;;;;;;;;4.80;99.90;;;;;;12340267;28;19930;-39
2022/12/07 11:59:21;;;;;;;;;;;4.90;99.90;;;;;;12342390;28;19934;-39
2022/12/07 12:05:23;;;;;;;;;;;4.90;99.90;;;;;;12343133;28;19933;-39
2022/12/07 12:11:44;;;;;;;;;;;5.00;99.90;;;;;;12336738;28;19926;-39
2022/12/07 12:17:52;;;;;;;;;;;4.70;99.90;;;;;;12328667;28;20341;-39
2022/12/07 12:23:59;;;;;;;;;;;4.70;99.90;;;;;;12339905;28;19926;-39
2022/12/07 12:30:03;;;;;;;;;;;4.70;99.90;;;;;;12335192;28;20417;-39
2022/12/07 12:36:24;;;;;;;;;;;4.80;99.90;;;;;;12341465;28;19926;-39
2022/12/07 12:42:43;;;;;;;;;;;4.80;99.90;;;;;;12333639;28;19958;-39
2022/12/07 12:48:44;;;;;;;;;;;4.80;99.90;;;;;;12337050;28;20378;-38
2022/12/07 12:55:05;;;;;;;;;;;4.90;99.90;;;;;;12340723;28;19949;-39
2022/12/07 13:01:45;;;;;;;;;;;4.90;99.90;;;;;;12344247;28;19930;-38
2022/12/07 13:08:05;;;;;;;;;;;5.00;99.90;;;;;;12146169;29;19928;-39
2022/12/07 13:14:25;;;;;;;;;;;5.00;99.90;;;;;;12335040;28;19937;-39
2022/12/07 13:20:42;;;;;;;;;;;5.10;99.90;;;;;;12338117;28;19958;-39
2022/12/07 13:26:44;;;;;;;;;;;5.30;99.90;;;;;;12316879;28;19926;-38
2022/12/07 13:32:57;;;;;;;;;;;5.20;99.90;;;;;;12342264;28;20417;-38
2022/12/07 13:39:00;;;;;;;;;;;5.20;99.90;;;;;;12331503;28;19926;-39
2022/12/07 13:45:47;;;;;;;;;;;5.20;99.90;;;;;;12339154;28;20445;-38
2022/12/07 13:51:44;;;;;;;;;;;5.10;99.90;;;;;;12340591;28;20279;-39
2022/12/07 13:57:51;;;;;;;;;;;4.90;99.90;;;;;;12340720;28;19937;-39
2022/12/07 14:03:52;;;;;;;;;;;4.90;99.90;;;;;;12337212;28;19926;-39
2022/12/07 14:09:59;;;;;;;;;;;4.90;99.90;;;;;;12338065;28;19927;-38
2022/12/07 14:16:05;;;;;;;;;;;4.90;99.90;;;;;;12318473;28;20318;-39
2022/12/07 14:22:08;;;;;;;;;;;4.90;99.90;;;;;;12323331;28;19955;-39
2022/12/07 14:28:24;;;;;;;;;;;4.80;99.90;;;;;;12335159;28;19933;-38
2022/12/07 14:34:26;;;;;;;;;;;4.80;99.90;;;;;;12337108;28;19926;-39
2022/12/07 14:40:29;;;;;;;;;;;4.80;99.90;;;;;;12334369;28;19926;-38
2022/12/07 14:46:30;;;;;;;;;;;4.70;99.90;;;;;;12337052;28;19952;-39
2022/12/07 14:52:33;;;;;;;;;;;4.70;99.90;;;;;;12338219;28;19933;-39
2022/12/07 14:58:54;;;;;;;;;;;4.60;99.90;;;;;;12339320;28;19933;-38
2022/12/07 15:04:56;;;;;;;;;;;4.40;99.90;;;;;;12342864;28;20016;-38
2022/12/07 15:10:58;;;;;;;;;;;4.40;99.90;;;;;;12338736;28;20330;-38
2022/12/07 15:16:59;;;;;;;;;;;4.30;99.90;;;;;;12342058;28;19937;-39
2022/12/07 15:23:12;;;;;;;;;;;4.20;99.90;;;;;;12343640;28;20069;-38
2022/12/07 15:29:15;;;;;;;;;;;4.20;99.90;;;;;;12341937;28;19980;-38
2022/12/07 15:35:23;;;;;;;;;;;4.10;99.90;;;;;;12334619;28;19953;-39
2022/12/07 15:41:25;;;;;;;;;;;4.00;99.90;;;;;;12341980;28;20302;-38
2022/12/07 15:47:27;;;;;;;;;;;4.00;99.90;;;;;;12346139;28;19933;-38
2022/12/07 15:53:29;;;;;;;;;;;4.00;99.90;;;;;;12334423;28;20341;-38
2022/12/07 15:59:30;;;;;;;;;;;4.10;99.90;;;;;;12340937;28;19933;-38
2022/12/07 16:05:33;;;;;;;;;;;4.00;99.90;;;;;;12335142;28;19926;-39
2022/12/07 16:11:34;;;;;;;;;;;3.80;99.90;;;;;;12343945;28;19934;-39
2022/12/07 16:17:36;;;;;;;;;;;3.40;99.90;;;;;;12346929;28;19930;-38
2022/12/07 16:23:38;;;;;;;;;;;3.30;99.90;;;;;;12335444;28;19949;-38
2022/12/07 16:29:40;;;;;;;;;;;3.10;99.90;;;;;;12344407;28;19933;-38
2022/12/07 16:35:41;;;;;;;;;;;3.00;99.90;;;;;;12343410;28;19941;-38
2022/12/07 16:41:43;;;;;;;;;;;3.00;99.90;;;;;;12343133;28;20016;-40
2022/12/07 16:47:45;;;;;;;;;;;3.00;99.90;;;;;;12344604;28;20025;-38
2022/12/07 16:53:47;;;;;;;;;;;2.90;99.90;;;;;;12343288;28;19933;-38
2022/12/07 16:59:48;;;;;;;;;;;2.90;99.90;;;;;;12339055;28;20378;-38
2022/12/07 17:05:50;;;;;;;;;;;2.90;99.90;;;;;;12337836;28;19930;-38
2022/12/07 17:11:52;;;;;;;;;;;2.90;99.90;;;;;;12341419;28;20413;-39
2022/12/07 17:17:55;;;;;;;;;;;2.90;99.90;;;;;;12341610;28;19926;-38
2022/12/07 17:24:00;;;;;;;;;;;2.90;99.90;;;;;;12339501;28;19930;-38
2022/12/07 17:30:03;;;;;;;;;;;2.90;99.90;;;;;;12340807;28;19992;-38
2022/12/07 17:36:12;;;;;;;;;;;2.90;99.90;;;;;;12342189;28;19930;-39
2022/12/07 17:48:35;;;;;;;;;;;3.20;99.90;;;;;;12345652;28;19926;-39
2022/12/07 17:54:36;;;;;;;;;;;3.30;99.90;;;;;;12340550;28;19930;-38
2022/12/07 18:00:39;;;;;;;;;;;3.30;99.90;;;;;;12342303;28;19926;-39
2022/12/07 18:06:41;;;;;;;;;;;3.40;99.90;;;;;;12345016;28;19984;-39
2022/12/07 18:12:46;;;;;;;;;;;3.40;99.90;;;;;;12343990;28;19953;-38
2022/12/07 18:18:52;;;;;;;;;;;3.40;99.90;;;;;;12344118;28;19933;-38
2022/12/07 18:24:54;;;;;;;;;;;3.30;99.90;;;;;;12336794;28;20371;-38
2022/12/07 18:30:56;;;;;;;;;;;3.40;99.90;;;;;;12336666;28;19930;-39
2022/12/07 18:37:17;;;;;;;;;;;3.20;99.90;;;;;;12338373;28;19937;-39
2022/12/07 18:43:19;;;;;;;;;;;3.10;99.90;;;;;;12318771;28;19926;-39
2022/12/07 18:49:21;;;;;;;;;;;3.00;99.90;;;;;;12346748;28;19933;-38
2022/12/07 18:55:24;;;;;;;;;;;3.00;99.90;;;;;;12335831;28;19988;-38
2022/12/07 19:01:26;;;;;;;;;;;3.00;99.90;;;;;;12338112;28;20378;-38
2022/12/07 19:07:28;;;;;;;;;;;3.00;99.90;;;;;;12322928;28;19930;-38
2022/12/07 19:13:30;;;;;;;;;;;3.20;99.90;;;;;;12337164;28;20718;-38
2022/12/07 19:19:36;;;;;;;;;;;3.20;99.90;;;;;;12340440;28;19961;-39
2022/12/07 19:25:38;;;;;;;;;;;3.20;99.90;;;;;;12325913;28;19926;-38
2022/12/07 19:31:40;;;;;;;;;;;3.30;99.90;;;;;;12338778;28;20016;-38
2022/12/07 19:37:42;;;;;;;;;;;3.20;99.90;;;;;;12338230;28;20337;-38
2022/12/07 19:43:44;;;;;;;;;;;3.20;99.90;;;;;;12342481;28;19930;-38
2022/12/07 19:49:45;;;;;;;;;;;3.10;99.90;;;;;;12334244;28;19930;-38
2022/12/07 19:55:47;;;;;;;;;;;3.10;99.90;;;;;;12344660;28;19933;-38
2022/12/07 20:01:49;;;;;;;;;;;3.20;99.90;;;;;;12329828;28;19934;-38
2022/12/07 20:07:51;;;;;;;;;;;3.20;99.90;;;;;;12340439;28;19933;-38
2022/12/07 20:13:53;;;;;;;;;;;3.10;99.90;;;;;;12361385;28;19934;-39
2022/12/07 20:19:54;;;;;;;;;;;3.00;99.90;;;;;;12344909;28;19926;-39
2022/12/07 20:26:00;;;;;;;;;;;2.90;99.90;;;;;;12344425;28;19930;-38
2022/12/07 20:32:02;;;;;;;;;;;3.00;99.90;;;;;;12345320;28;20730;-39
2022/12/07 20:38:04;;;;;;;;;;;2.90;99.90;;;;;;12341711;28;19933;-38
2022/12/07 20:44:05;;;;;;;;;;;2.90;99.90;;;;;;12336524;28;19937;-38
2022/12/07 20:50:07;;;;;;;;;;;2.80;99.90;;;;;;12350127;28;20386;-39
2022/12/07 20:56:22;;;;;;;;;;;2.80;99.90;;;;;;12311763;28;19937;-39
2022/12/07 21:02:25;;;;;;;;;;;2.80;99.90;;;;;;12339294;28;19937;-38
2022/12/07 21:08:27;;;;;;;;;;;2.90;99.90;;;;;;12340589;28;19930;-38
2022/12/07 21:14:28;;;;;;;;;;;3.00;99.90;;;;;;12340846;28;19937;-39
2022/12/07 21:20:31;;;;;;;;;;;2.90;99.90;;;;;;12342669;28;19930;-38
2022/12/07 21:26:34;;;;;;;;;;;3.00;99.90;;;;;;12336176;28;19930;-38
2022/12/07 21:32:35;;;;;;;;;;;3.00;99.90;;;;;;12340736;28;20302;-39
2022/12/07 21:38:37;;;;;;;;;;;3.10;99.90;;;;;;12332214;28;19992;-39
2022/12/07 21:44:39;;;;;;;;;;;3.20;99.90;;;;;;12336816;28;19930;-38
2022/12/07 21:50:40;;;;;;;;;;;3.20;99.90;;;;;;12339642;28;19926;-38
2022/12/07 21:56:44;;;;;;;;;;;3.20;99.90;;;;;;12343201;28;20323;-38
2022/12/07 22:02:45;;;;;;;;;;;3.40;99.90;;;;;;12339220;28;19957;-38
2022/12/07 22:08:47;;;;;;;;;;;3.30;99.90;;;;;;12331231;28;20382;-39
2022/12/07 22:15:09;;;;;;;;;;;3.30;99.90;;;;;;12342109;28;20374;-38
2022/12/07 22:21:10;;;;;;;;;;;3.20;99.90;;;;;;12334712;28;20383;-38
2022/12/07 22:27:12;;;;;;;;;;;3.10;99.90;;;;;;12337168;28;19952;-38
2022/12/07 22:33:15;;;;;;;;;;;3.10;99.90;;;;;;12334749;28;19978;-39
2022/12/07 22:39:16;;;;;;;;;;;3.20;99.90;;;;;;12327419;28;19930;-38
2022/12/07 22:45:18;;;;;;;;;;;3.20;99.90;;;;;;12339545;28;19926;-38
2022/12/07 22:51:21;;;;;;;;;;;3.30;99.90;;;;;;12337954;28;19933;-38
2022/12/07 22:57:23;;;;;;;;;;;3.20;99.90;;;;;;12333216;28;19961;-38
2022/12/07 23:03:25;;;;;;;;;;;3.30;99.90;;;;;;12339196;28;20436;-39
2022/12/07 23:09:26;;;;;;;;;;;3.20;99.90;;;;;;12342884;28;19969;-39
2022/12/07 23:15:28;;;;;;;;;;;3.30;99.90;;;;;;12332101;28;19941;-38
2022/12/07 23:21:30;;;;;;;;;;;3.10;99.90;;;;;;12339749;28;19930;-39
2022/12/07 23:27:32;;;;;;;;;;;3.10;99.90;;;;;;12333870;28;19930;-38
2022/12/07 23:33:34;;;;;;;;;;;3.00;99.90;;;;;;12342747;28;19984;-39
2022/12/07 23:39:36;;;;;;;;;;;2.90;99.90;;;;;;12344975;28;20414;-39
2022/12/07 23:45:38;;;;;;;;;;;2.80;99.90;;;;;;12342111;28;19941;-39
2022/12/07 23:51:39;;;;;;;;;;;2.70;99.90;;;;;;12347120;28;19980;-38
2022/12/07 23:57:41;;;;;;;;;;;2.70;99.90;;;;;;12345820;28;19930;-38
